createdAt,value
2018-04-18T00:00:19.537Z,0.00
2018-04-18T00:01:19.592Z,0.00
2018-04-18T00:02:19.677Z,0.00
2018-04-18T00:03:19.569Z,0.00
2018-04-18T00:04:19.580Z,0.00
2018-04-18T00:05:19.621Z,0.00
2018-04-18T00:06:19.612Z,0.00
2018-04-18T00:07:19.723Z,0.00
2018-04-18T00:08:19.665Z,0.00
2018-04-18T00:09:19.678Z,0.00
2018-04-18T00:10:19.677Z,0.00
2018-04-18T00:11:19.678Z,0.00
2018-04-18T00:12:19.790Z,0.00
2018-04-18T00:13:19.711Z,0.00
2018-04-18T00:14:19.720Z,0.00
2018-04-18T00:15:19.731Z,0.00
2018-04-18T00:16:19.761Z,0.00
2018-04-18T00:17:19.859Z,0.00
2018-04-18T00:18:19.777Z,0.00
2018-04-18T00:19:19.821Z,0.00
2018-04-18T00:20:19.816Z,0.00
2018-04-18T00:21:19.818Z,0.00
2018-04-18T00:22:19.927Z,0.00
2018-04-18T00:23:19.848Z,0.00
2018-04-18T00:24:19.870Z,0.00
2018-04-18T00:25:19.887Z,0.00
2018-04-18T00:26:19.889Z,0.00
2018-04-18T00:27:20.006Z,0.00
2018-04-18T00:28:19.907Z,0.00
2018-04-18T00:29:19.951Z,0.00
2018-04-18T00:30:19.936Z,0.00
2018-04-18T00:31:19.953Z,0.00
2018-04-18T00:32:20.068Z,0.00
2018-04-18T00:33:20.008Z,0.00
2018-04-18T00:34:20.020Z,0.00
2018-04-18T00:35:20.009Z,0.00
2018-04-18T00:36:20.033Z,0.00
2018-04-18T00:37:20.192Z,0.00
2018-04-18T00:38:20.079Z,0.00
2018-04-18T00:39:20.091Z,0.00
2018-04-18T00:40:20.102Z,0.00
2018-04-18T00:41:20.112Z,0.00
2018-04-18T00:42:20.214Z,0.00
2018-04-18T00:43:20.140Z,0.00
2018-04-18T00:44:20.142Z,0.00
2018-04-18T00:45:20.143Z,0.00
2018-04-18T00:46:20.198Z,0.00
2018-04-18T00:47:20.269Z,0.00
2018-04-18T00:48:20.182Z,0.00
2018-04-18T00:49:20.221Z,0.00
2018-04-18T00:50:20.212Z,0.00
2018-04-18T00:51:20.235Z,0.00
2018-04-18T00:52:20.344Z,0.00
2018-04-18T00:53:20.262Z,0.00
2018-04-18T00:54:20.289Z,0.00
2018-04-18T00:55:20.285Z,0.00
2018-04-18T00:56:20.318Z,0.00
2018-04-18T00:57:20.438Z,0.00
2018-04-18T00:58:20.331Z,0.00
2018-04-18T00:59:20.358Z,0.00
2018-04-18T01:00:20.349Z,0.00
2018-04-18T01:01:20.384Z,0.00
2018-04-18T01:02:20.472Z,0.00
2018-04-18T01:03:20.383Z,0.00
2018-04-18T01:04:20.404Z,0.00
2018-04-18T01:05:20.416Z,0.00
2018-04-18T01:06:20.455Z,0.00
2018-04-18T01:07:20.602Z,0.00
2018-04-18T01:08:20.466Z,0.00
2018-04-18T01:09:20.497Z,0.00
2018-04-18T01:10:20.491Z,0.00
2018-04-18T01:11:20.522Z,0.00
2018-04-18T01:12:20.619Z,0.00
2018-04-18T01:13:20.523Z,0.00
2018-04-18T01:14:20.533Z,0.00
2018-04-18T01:15:20.551Z,0.00
2018-04-18T01:16:20.595Z,0.00
2018-04-18T01:17:20.675Z,0.00
2018-04-18T01:18:20.587Z,0.00
2018-04-18T01:19:20.631Z,0.00
2018-04-18T01:20:20.632Z,0.00
2018-04-18T01:21:20.643Z,0.00
2018-04-18T01:22:20.767Z,0.00
2018-04-18T01:23:20.684Z,0.00
2018-04-18T01:24:20.698Z,0.00
2018-04-18T01:25:20.685Z,0.00
2018-04-18T01:26:20.696Z,0.00
2018-04-18T01:27:20.813Z,0.00
2018-04-18T01:28:20.748Z,0.00
2018-04-18T01:29:20.739Z,0.00
2018-04-18T01:30:20.758Z,0.00
2018-04-18T01:31:20.795Z,0.00
2018-04-18T01:32:20.923Z,0.00
2018-04-18T01:33:20.816Z,0.00
2018-04-18T01:34:20.803Z,0.00
2018-04-18T01:35:20.828Z,0.00
2018-04-18T01:36:20.837Z,0.00
2018-04-18T01:37:20.973Z,0.00
2018-04-18T01:38:20.857Z,0.00
2018-04-18T01:39:20.869Z,0.00
2018-04-18T01:40:20.895Z,0.00
2018-04-18T01:41:20.897Z,0.00
2018-04-18T01:42:21.008Z,0.00
2018-04-18T01:43:20.957Z,0.00
2018-04-18T01:44:20.950Z,0.00
2018-04-18T01:45:20.965Z,0.00
2018-04-18T01:46:20.991Z,0.00
2018-04-18T01:47:21.074Z,0.00
2018-04-18T01:48:20.992Z,0.00
2018-04-18T01:49:21.030Z,0.00
2018-04-18T01:50:21.020Z,0.00
2018-04-18T01:51:21.044Z,0.00
2018-04-18T01:52:21.173Z,0.00
2018-04-18T01:53:21.054Z,0.00
2018-04-18T01:54:21.095Z,0.00
2018-04-18T01:55:21.130Z,0.00
2018-04-18T01:56:21.100Z,0.00
2018-04-18T01:57:21.221Z,0.00
2018-04-18T01:58:21.127Z,0.00
2018-04-18T01:59:21.156Z,0.00
2018-04-18T02:00:21.163Z,0.00
2018-04-18T02:01:21.194Z,0.00
2018-04-18T02:02:21.308Z,0.00
2018-04-18T02:03:21.191Z,0.00
2018-04-18T02:04:21.233Z,0.00
2018-04-18T02:05:21.233Z,0.00
2018-04-18T02:06:21.233Z,0.00
2018-04-18T02:07:21.349Z,0.00
2018-04-18T02:08:21.256Z,0.00
2018-04-18T02:09:21.265Z,0.00
2018-04-18T02:10:21.312Z,0.00
2018-04-18T02:11:21.329Z,0.00
2018-04-18T02:12:21.318Z,0.00
2018-04-18T02:13:21.447Z,0.00
2018-04-18T02:14:21.365Z,0.00
2018-04-18T02:15:21.374Z,0.00
2018-04-18T02:16:21.369Z,0.00
2018-04-18T02:17:21.374Z,0.00
2018-04-18T02:18:21.488Z,0.00
2018-04-18T02:19:21.411Z,0.00
2018-04-18T02:20:21.412Z,0.00
2018-04-18T02:21:21.461Z,0.00
2018-04-18T02:22:21.453Z,0.00
2018-04-18T02:23:21.557Z,0.00
2018-04-18T02:24:21.472Z,0.00
2018-04-18T02:25:21.484Z,0.00
2018-04-18T02:26:21.493Z,0.00
2018-04-18T02:27:21.535Z,0.00
2018-04-18T02:28:21.628Z,0.00
2018-04-18T02:29:21.534Z,0.00
2018-04-18T02:30:21.558Z,0.00
2018-04-18T02:31:21.614Z,0.00
2018-04-18T02:32:21.571Z,0.00
2018-04-18T02:33:21.688Z,0.00
2018-04-18T02:34:21.630Z,0.00
2018-04-18T02:35:21.637Z,0.00
2018-04-18T02:36:21.629Z,0.00
2018-04-18T02:37:21.637Z,0.00
2018-04-18T02:38:21.751Z,0.00
2018-04-18T02:39:21.671Z,0.00
2018-04-18T02:40:21.710Z,0.00
2018-04-18T02:41:21.706Z,0.00
2018-04-18T02:42:21.734Z,0.00
2018-04-18T02:43:21.821Z,0.00
2018-04-18T02:44:21.728Z,0.00
2018-04-18T02:45:21.769Z,0.00
2018-04-18T02:46:21.762Z,0.00
2018-04-18T02:47:21.767Z,0.00
2018-04-18T02:48:21.891Z,0.00
2018-04-18T02:49:21.799Z,0.00
2018-04-18T02:50:21.831Z,0.00
2018-04-18T02:51:21.833Z,0.00
2018-04-18T02:52:21.858Z,0.00
2018-04-18T02:53:21.945Z,0.00
2018-04-18T02:54:21.869Z,0.00
2018-04-18T02:55:21.886Z,0.00
2018-04-18T02:56:21.909Z,0.00
2018-04-18T02:57:21.899Z,0.00
2018-04-18T02:58:22.010Z,0.00
2018-04-18T02:59:21.925Z,0.00
2018-04-18T03:00:21.936Z,0.00
2018-04-18T03:01:21.955Z,0.00
2018-04-18T03:02:21.966Z,0.00
2018-04-18T03:03:22.104Z,0.00
2018-04-18T03:04:21.997Z,0.00
2018-04-18T03:05:22.030Z,0.00
2018-04-18T03:06:22.020Z,0.00
2018-04-18T03:07:22.037Z,0.00
2018-04-18T03:08:22.138Z,0.00
2018-04-18T03:09:22.060Z,0.00
2018-04-18T03:10:22.093Z,0.00
2018-04-18T03:11:22.079Z,0.00
2018-04-18T03:12:22.120Z,0.00
2018-04-18T03:13:22.210Z,0.00
2018-04-18T03:14:22.151Z,0.00
2018-04-18T03:15:22.129Z,0.00
2018-04-18T03:16:22.169Z,0.00
2018-04-18T03:17:22.185Z,0.00
2018-04-18T03:18:22.294Z,0.00
2018-04-18T03:19:22.207Z,0.00
2018-04-18T03:20:22.196Z,0.00
2018-04-18T03:21:22.231Z,0.00
2018-04-18T03:22:22.219Z,0.00
2018-04-18T03:23:22.344Z,0.00
2018-04-18T03:24:22.276Z,0.00
2018-04-18T03:25:22.266Z,0.00
2018-04-18T03:26:22.297Z,0.00
2018-04-18T03:27:22.287Z,0.00
2018-04-18T03:28:22.322Z,0.00
2018-04-18T03:29:22.439Z,0.00
2018-04-18T03:30:22.324Z,0.00
2018-04-18T03:31:22.336Z,0.00
2018-04-18T03:32:22.351Z,0.00
2018-04-18T03:33:22.369Z,0.00
2018-04-18T03:34:22.505Z,0.00
2018-04-18T03:35:22.403Z,0.00
2018-04-18T03:36:22.405Z,0.00
2018-04-18T03:37:22.418Z,0.00
2018-04-18T03:38:22.431Z,0.00
2018-04-18T03:39:22.569Z,0.00
2018-04-18T03:40:22.454Z,0.00
2018-04-18T03:41:22.498Z,0.00
2018-04-18T03:42:22.478Z,0.00
2018-04-18T03:43:22.506Z,0.00
2018-04-18T03:44:22.654Z,0.00
2018-04-18T03:45:22.521Z,0.00
2018-04-18T03:46:22.555Z,0.00
2018-04-18T03:47:22.543Z,0.00
2018-04-18T03:48:22.583Z,0.00
2018-04-18T03:49:22.692Z,0.00
2018-04-18T03:50:22.588Z,0.00
2018-04-18T03:51:22.626Z,0.00
2018-04-18T03:52:22.632Z,0.00
2018-04-18T03:53:22.620Z,0.00
2018-04-18T03:54:22.732Z,0.00
2018-04-18T03:55:22.651Z,0.00
2018-04-18T03:56:22.666Z,0.00
2018-04-18T03:57:22.668Z,0.00
2018-04-18T03:58:22.686Z,0.00
2018-04-18T03:59:22.826Z,0.00
2018-04-18T04:00:22.717Z,0.00
2018-04-18T04:01:22.719Z,0.00
2018-04-18T04:02:22.761Z,0.00
2018-04-18T04:03:22.771Z,0.00
2018-04-18T04:04:22.861Z,0.00
2018-04-18T04:05:22.773Z,0.00
2018-04-18T04:06:22.811Z,0.00
2018-04-18T04:07:22.809Z,0.00
2018-04-18T04:08:22.819Z,0.00
2018-04-18T04:09:22.951Z,0.00
2018-04-18T04:10:22.838Z,0.00
2018-04-18T04:11:22.850Z,0.00
2018-04-18T04:12:22.864Z,0.00
2018-04-18T04:13:22.898Z,0.00
2018-04-18T04:14:23.066Z,0.00
2018-04-18T04:15:22.911Z,0.00
2018-04-18T04:16:22.927Z,0.00
2018-04-18T04:17:22.924Z,0.00
2018-04-18T04:18:22.965Z,0.00
2018-04-18T04:19:23.060Z,0.00
2018-04-18T04:20:22.989Z,0.00
2018-04-18T04:21:22.982Z,0.00
2018-04-18T04:22:22.992Z,0.00
2018-04-18T04:23:23.000Z,0.00
2018-04-18T04:24:23.124Z,0.00
2018-04-18T04:25:23.026Z,0.00
2018-04-18T04:26:23.037Z,0.00
2018-04-18T04:27:23.066Z,0.00
2018-04-18T04:28:23.063Z,0.00
2018-04-18T04:29:23.184Z,0.00
2018-04-18T04:30:23.089Z,0.00
2018-04-18T04:31:23.101Z,0.00
2018-04-18T04:32:23.125Z,0.00
2018-04-18T04:33:23.129Z,0.00
2018-04-18T04:34:23.249Z,0.00
2018-04-18T04:35:23.163Z,0.00
2018-04-18T04:36:23.164Z,0.00
2018-04-18T04:37:23.181Z,0.00
2018-04-18T04:38:23.189Z,0.00
2018-04-18T04:39:23.316Z,0.00
2018-04-18T04:40:23.231Z,0.00
2018-04-18T04:41:23.227Z,0.00
2018-04-18T04:42:23.242Z,0.00
2018-04-18T04:43:23.258Z,0.00
2018-04-18T04:44:23.277Z,0.00
2018-04-18T04:45:23.391Z,0.00
2018-04-18T04:46:23.289Z,0.00
2018-04-18T04:47:23.316Z,0.00
2018-04-18T04:48:23.328Z,0.00
2018-04-18T04:49:23.330Z,0.00
2018-04-18T04:50:23.446Z,0.00
2018-04-18T04:51:23.353Z,0.00
2018-04-18T04:52:23.378Z,0.00
2018-04-18T04:53:23.378Z,0.00
2018-04-18T04:54:23.402Z,0.00
2018-04-18T04:55:23.502Z,0.00
2018-04-18T04:56:23.442Z,0.00
2018-04-18T04:57:23.428Z,0.00
2018-04-18T04:58:23.448Z,0.00
2018-04-18T04:59:23.450Z,0.00
2018-04-18T05:00:23.595Z,0.00
2018-04-18T05:01:23.481Z,0.00
2018-04-18T05:02:23.524Z,0.00
2018-04-18T05:03:23.518Z,0.00
2018-04-18T05:04:23.513Z,0.00
2018-04-18T05:05:23.627Z,0.00
2018-04-18T05:06:23.541Z,0.00
2018-04-18T05:07:23.578Z,0.00
2018-04-18T05:08:23.568Z,0.00
2018-04-18T05:09:23.603Z,0.00
2018-04-18T05:10:23.782Z,0.00
2018-04-18T05:11:23.610Z,0.00
2018-04-18T05:12:23.619Z,0.00
2018-04-18T05:13:23.630Z,0.00
2018-04-18T05:14:23.647Z,0.00
2018-04-18T05:15:23.756Z,0.00
2018-04-18T05:16:23.690Z,0.00
2018-04-18T05:17:23.704Z,0.00
2018-04-18T05:18:23.694Z,0.00
2018-04-18T05:19:23.727Z,0.00
2018-04-18T05:20:23.815Z,0.00
2018-04-18T05:21:23.755Z,0.00
2018-04-18T05:22:23.741Z,0.00
2018-04-18T05:23:23.780Z,0.00
2018-04-18T05:24:23.772Z,0.00
2018-04-18T05:25:23.875Z,0.00
2018-04-18T05:26:23.816Z,0.00
2018-04-18T05:27:23.798Z,0.00
2018-04-18T05:28:23.829Z,0.00
2018-04-18T05:29:23.836Z,0.00
2018-04-18T05:30:23.967Z,0.00
2018-04-18T05:31:23.878Z,0.00
2018-04-18T05:32:23.887Z,0.00
2018-04-18T05:33:23.874Z,0.00
2018-04-18T05:34:23.888Z,0.00
2018-04-18T05:35:24.013Z,0.00
2018-04-18T05:36:23.922Z,0.00
2018-04-18T05:37:23.931Z,0.00
2018-04-18T05:38:23.935Z,0.00
2018-04-18T05:39:23.951Z,0.00
2018-04-18T05:40:24.088Z,0.00
2018-04-18T05:41:23.968Z,0.00
2018-04-18T05:42:24.014Z,0.00
2018-04-18T05:43:24.010Z,0.00
2018-04-18T05:44:24.015Z,0.00
2018-04-18T05:45:24.146Z,0.00
2018-04-18T05:46:24.059Z,0.00
2018-04-18T05:47:24.079Z,0.00
2018-04-18T05:48:24.063Z,0.00
2018-04-18T05:49:24.078Z,0.00
2018-04-18T05:50:24.209Z,0.00
2018-04-18T05:51:24.096Z,0.00
2018-04-18T05:52:24.158Z,0.00
2018-04-18T05:53:24.130Z,0.00
2018-04-18T05:54:24.142Z,0.00
2018-04-18T05:55:24.338Z,0.00
2018-04-18T05:56:24.157Z,0.00
2018-04-18T05:57:24.194Z,0.00
2018-04-18T05:58:24.185Z,0.00
2018-04-18T05:59:24.222Z,0.00
2018-04-18T06:00:24.331Z,0.00
2018-04-18T06:01:24.222Z,0.00
2018-04-18T06:02:24.249Z,0.00
2018-04-18T06:03:24.245Z,0.00
2018-04-18T06:04:24.255Z,0.00
2018-04-18T06:05:24.296Z,0.00
2018-04-18T06:06:24.380Z,0.00
2018-04-18T06:07:24.317Z,0.00
2018-04-18T06:08:24.331Z,0.00
2018-04-18T06:09:24.330Z,0.00
2018-04-18T06:10:24.329Z,0.00
2018-04-18T06:11:24.469Z,0.00
2018-04-18T06:12:24.354Z,0.00
2018-04-18T06:13:24.374Z,0.00
2018-04-18T06:14:24.373Z,0.00
2018-04-18T06:15:24.392Z,0.00
2018-04-18T06:16:24.505Z,0.00
2018-04-18T06:17:24.442Z,0.00
2018-04-18T06:18:24.425Z,0.00
2018-04-18T06:19:24.449Z,0.00
2018-04-18T06:20:24.476Z,0.00
2018-04-18T06:21:24.588Z,0.00
2018-04-18T06:22:24.502Z,0.00
2018-04-18T06:23:24.490Z,0.00
2018-04-18T06:24:24.507Z,0.00
2018-04-18T06:25:24.535Z,0.00
2018-04-18T06:26:24.637Z,0.00
2018-04-18T06:27:24.535Z,0.00
2018-04-18T06:28:24.576Z,0.00
2018-04-18T06:29:24.560Z,0.00
2018-04-18T06:30:24.571Z,0.00
2018-04-18T06:31:24.680Z,0.00
2018-04-18T06:32:24.598Z,0.00
2018-04-18T06:33:24.635Z,0.00
2018-04-18T06:34:24.631Z,0.00
2018-04-18T06:35:24.664Z,0.00
2018-04-18T06:36:24.749Z,0.00
2018-04-18T06:37:24.687Z,0.00
2018-04-18T06:38:24.672Z,0.00
2018-04-18T06:39:24.687Z,0.00
2018-04-18T06:40:24.692Z,0.00
2018-04-18T06:41:24.833Z,0.00
2018-04-18T06:42:24.720Z,0.00
2018-04-18T06:43:24.728Z,0.00
2018-04-18T06:44:24.740Z,0.00
2018-04-18T06:45:24.751Z,0.00
2018-04-18T06:46:24.890Z,0.00
2018-04-18T06:47:24.797Z,0.00
2018-04-18T06:48:24.792Z,0.00
2018-04-18T06:49:24.807Z,0.00
2018-04-18T06:50:24.842Z,0.00
2018-04-18T06:51:24.937Z,0.00
2018-04-18T06:52:24.870Z,0.00
2018-04-18T06:53:24.848Z,0.00
2018-04-18T06:54:24.872Z,0.00
2018-04-18T06:55:24.898Z,0.00
2018-04-18T06:56:25.014Z,0.00
2018-04-18T06:57:24.895Z,0.00
2018-04-18T06:58:24.936Z,0.00
2018-04-18T06:59:24.917Z,0.00
2018-04-18T07:00:24.962Z,0.00
2018-04-18T07:01:25.056Z,0.00
2018-04-18T07:02:24.987Z,0.00
2018-04-18T07:03:24.984Z,0.00
2018-04-18T07:04:25.014Z,0.00
2018-04-18T07:05:25.002Z,0.00
2018-04-18T07:06:25.132Z,0.00
2018-04-18T07:07:25.015Z,0.00
2018-04-18T07:08:25.055Z,0.00
2018-04-18T07:09:25.054Z,0.00
2018-04-18T07:10:25.054Z,0.00
2018-04-18T07:11:25.186Z,0.00
2018-04-18T07:12:25.112Z,0.00
2018-04-18T07:13:25.096Z,0.00
2018-04-18T07:14:25.106Z,0.00
2018-04-18T07:15:25.140Z,0.00
2018-04-18T07:16:25.233Z,0.00
2018-04-18T07:17:25.139Z,0.00
2018-04-18T07:18:25.145Z,0.00
2018-04-18T07:19:25.177Z,0.00
2018-04-18T07:20:25.200Z,0.00
2018-04-18T07:21:25.229Z,0.00
2018-04-18T07:22:25.303Z,0.00
2018-04-18T07:23:25.211Z,0.00
2018-04-18T07:24:25.227Z,0.00
2018-04-18T07:25:25.238Z,0.00
2018-04-18T07:26:25.245Z,0.00
2018-04-18T07:27:25.358Z,0.00
2018-04-18T07:28:25.278Z,0.00
2018-04-18T07:29:25.307Z,0.00
2018-04-18T07:30:25.293Z,0.00
2018-04-18T07:31:25.313Z,0.00
2018-04-18T07:32:25.443Z,0.00
2018-04-18T07:33:25.340Z,0.00
2018-04-18T07:34:25.354Z,0.00
2018-04-18T07:35:25.364Z,0.00
2018-04-18T07:36:25.367Z,0.00
2018-04-18T07:37:25.480Z,0.00
2018-04-18T07:38:25.392Z,0.00
2018-04-18T07:39:25.428Z,0.00
2018-04-18T07:40:25.424Z,0.00
2018-04-18T07:41:25.454Z,0.00
2018-04-18T07:42:25.540Z,0.00
2018-04-18T07:43:25.449Z,0.00
2018-04-18T07:44:25.542Z,0.00
2018-04-18T07:45:25.501Z,0.00
2018-04-18T07:46:25.485Z,0.00
2018-04-18T07:47:25.629Z,0.00
2018-04-18T07:48:25.529Z,0.00
2018-04-18T07:49:25.554Z,0.00
2018-04-18T07:50:25.565Z,0.00
2018-04-18T07:51:25.575Z,0.00
2018-04-18T07:52:25.656Z,0.00
2018-04-18T07:53:25.584Z,0.00
2018-04-18T07:54:25.590Z,0.00
2018-04-18T07:55:25.617Z,0.00
2018-04-18T07:56:25.634Z,0.00
2018-04-18T07:57:25.744Z,0.00
2018-04-18T07:58:25.632Z,0.00
2018-04-18T07:59:25.689Z,0.00
2018-04-18T08:00:25.678Z,0.00
2018-04-18T08:01:25.665Z,0.00
2018-04-18T08:02:25.779Z,0.00
2018-04-18T08:03:25.689Z,0.00
2018-04-18T08:04:25.698Z,0.00
2018-04-18T08:05:25.739Z,0.00
2018-04-18T08:06:25.725Z,0.00
2018-04-18T08:07:25.843Z,0.00
2018-04-18T08:08:25.755Z,0.00
2018-04-18T08:09:25.773Z,0.00
2018-04-18T08:10:25.775Z,0.00
2018-04-18T08:11:25.808Z,0.00
2018-04-18T08:12:25.897Z,0.00
2018-04-18T08:13:25.831Z,0.00
2018-04-18T08:14:25.845Z,0.00
2018-04-18T08:15:25.910Z,0.00
2018-04-18T08:16:25.838Z,0.00
2018-04-18T08:17:25.982Z,0.00
2018-04-18T08:18:25.872Z,0.00
2018-04-18T08:19:25.905Z,0.00
2018-04-18T08:20:25.892Z,0.00
2018-04-18T08:21:25.930Z,0.00
2018-04-18T08:22:26.021Z,0.00
2018-04-18T08:23:25.927Z,0.00
2018-04-18T08:24:25.939Z,0.00
2018-04-18T08:25:25.973Z,0.00
2018-04-18T08:26:25.963Z,0.00
2018-04-18T08:27:26.076Z,0.00
2018-04-18T08:28:25.999Z,0.00
2018-04-18T08:29:26.035Z,0.00
2018-04-18T08:30:26.024Z,0.00
2018-04-18T08:31:26.024Z,0.00
2018-04-18T08:32:26.157Z,0.00
2018-04-18T08:33:26.041Z,0.00
2018-04-18T08:34:26.072Z,0.00
2018-04-18T08:35:26.073Z,0.00
2018-04-18T08:36:26.073Z,0.00
2018-04-18T08:37:26.215Z,0.00
2018-04-18T08:38:26.102Z,0.00
2018-04-18T08:39:26.115Z,0.00
2018-04-18T08:40:26.126Z,0.00
2018-04-18T08:41:26.137Z,0.00
2018-04-18T08:42:26.278Z,0.00
2018-04-18T08:43:26.187Z,0.00
2018-04-18T08:44:26.176Z,0.00
2018-04-18T08:45:26.214Z,0.00
2018-04-18T08:46:26.230Z,0.00
2018-04-18T08:47:26.223Z,0.00
2018-04-18T08:48:26.321Z,0.00
2018-04-18T08:49:26.253Z,0.00
2018-04-18T08:50:26.245Z,0.00
2018-04-18T08:51:26.286Z,0.00
2018-04-18T08:52:26.271Z,0.00
2018-04-18T08:53:26.376Z,0.00
2018-04-18T08:54:26.293Z,0.00
2018-04-18T08:55:26.331Z,0.00
2018-04-18T08:56:26.314Z,0.00
2018-04-18T08:57:26.325Z,4.00
2018-04-18T08:58:26.517Z,4.00
2018-04-18T08:59:26.379Z,4.00
2018-04-18T09:00:26.373Z,4.00
2018-04-18T09:01:26.384Z,4.00
2018-04-18T09:02:26.388Z,4.00
2018-04-18T09:03:26.507Z,8.00
2018-04-18T09:04:26.417Z,8.00
2018-04-18T09:05:26.421Z,8.00
2018-04-18T09:06:26.457Z,12.00
2018-04-18T09:07:26.454Z,16.00
2018-04-18T09:08:26.560Z,20.00
2018-04-18T09:09:26.472Z,24.00
2018-04-18T09:10:26.483Z,32.00
2018-04-18T09:11:26.524Z,40.00
2018-04-18T09:12:26.534Z,52.00
2018-04-18T09:13:26.644Z,56.00
2018-04-18T09:14:26.546Z,64.00
2018-04-18T09:15:26.565Z,80.00
2018-04-18T09:16:26.583Z,96.00
2018-04-18T09:17:26.590Z,116.00
2018-04-18T09:18:26.684Z,120.00
2018-04-18T09:19:26.587Z,132.00
2018-04-18T09:20:26.607Z,156.00
2018-04-18T09:21:26.626Z,172.00
2018-04-18T09:22:26.653Z,204.00
2018-04-18T09:23:26.741Z,236.00
2018-04-18T09:24:26.655Z,268.00
2018-04-18T09:25:26.659Z,296.00
2018-04-18T09:26:26.670Z,324.00
2018-04-18T09:27:26.682Z,348.00
2018-04-18T09:28:26.866Z,336.00
2018-04-18T09:29:26.706Z,368.00
2018-04-18T09:30:26.722Z,468.00
2018-04-18T09:31:26.730Z,488.00
2018-04-18T09:32:26.747Z,592.00
2018-04-18T09:33:26.857Z,640.00
2018-04-18T09:34:26.766Z,664.00
2018-04-18T09:35:26.779Z,700.00
2018-04-18T09:36:26.795Z,780.00
2018-04-18T09:37:26.801Z,852.00
2018-04-18T09:38:26.917Z,964.00
2018-04-18T09:39:26.840Z,1228.00
2018-04-18T09:40:26.839Z,1260.00
2018-04-18T09:41:26.878Z,1424.00
2018-04-18T09:42:26.874Z,1704.00
2018-04-18T09:43:27.003Z,1740.00
2018-04-18T09:44:26.891Z,1688.00
2018-04-18T09:45:26.927Z,1768.00
2018-04-18T09:46:26.923Z,2040.00
2018-04-18T09:47:26.955Z,1792.00
2018-04-18T09:48:27.045Z,1820.00
2018-04-18T09:49:26.951Z,1844.00
2018-04-18T09:50:26.961Z,2112.00
2018-04-18T09:51:26.979Z,1704.00
2018-04-18T09:52:27.014Z,1672.00
2018-04-18T09:53:27.099Z,2052.00
2018-04-18T09:54:27.017Z,1784.00
2018-04-18T09:55:27.048Z,1876.00
2018-04-18T09:56:27.063Z,2016.00
2018-04-18T09:57:27.046Z,2352.00
2018-04-18T09:58:27.247Z,3076.00
2018-04-18T09:59:27.073Z,2896.00
2018-04-18T10:00:27.088Z,2632.00
2018-04-18T10:01:27.103Z,2484.00
2018-04-18T10:02:27.136Z,3316.00
2018-04-18T10:03:27.253Z,3824.00
2018-04-18T10:04:27.128Z,3304.00
2018-04-18T10:05:27.147Z,3496.00
2018-04-18T10:06:27.157Z,4092.00
2018-04-18T10:07:27.169Z,3108.00
2018-04-18T10:08:27.183Z,3200.00
2018-04-18T10:09:27.327Z,3480.00
2018-04-18T10:10:27.235Z,5228.00
2018-04-18T10:11:27.245Z,4968.00
2018-04-18T10:12:27.265Z,3968.00
2018-04-18T10:13:27.249Z,4556.00
2018-04-18T10:14:27.355Z,3332.00
2018-04-18T10:15:27.272Z,3464.00
2018-04-18T10:16:27.284Z,3488.00
2018-04-18T10:17:27.322Z,3920.00
2018-04-18T10:18:27.304Z,5568.00
2018-04-18T10:19:27.417Z,5908.00
2018-04-18T10:20:27.333Z,5176.00
2018-04-18T10:21:27.346Z,4632.00
2018-04-18T10:22:27.389Z,5268.00
2018-04-18T10:23:27.374Z,5460.00
2018-04-18T10:24:27.481Z,5428.00
2018-04-18T10:25:27.399Z,6684.00
2018-04-18T10:26:27.404Z,7264.00
2018-04-18T10:27:27.423Z,5972.00
2018-04-18T10:28:27.446Z,6888.00
2018-04-18T10:29:27.574Z,6620.00
2018-04-18T10:30:27.460Z,5416.00
2018-04-18T10:31:27.484Z,5848.00
2018-04-18T10:32:27.484Z,7848.00
2018-04-18T10:33:27.497Z,6096.00
2018-04-18T10:34:27.642Z,5664.00
2018-04-18T10:35:27.523Z,6228.00
2018-04-18T10:36:27.540Z,5168.00
2018-04-18T10:37:27.579Z,4928.00
2018-04-18T10:38:27.596Z,6308.00
2018-04-18T10:39:27.754Z,5744.00
2018-04-18T10:40:27.615Z,5712.00
2018-04-18T10:41:27.603Z,5532.00
2018-04-18T10:42:27.627Z,4840.00
2018-04-18T10:43:27.628Z,6492.00
2018-04-18T10:44:27.757Z,6148.00
2018-04-18T10:45:27.685Z,7864.00
2018-04-18T10:46:27.694Z,7504.00
2018-04-18T10:47:27.707Z,7696.00
2018-04-18T10:48:27.699Z,6736.00
2018-04-18T10:49:27.817Z,7136.00
2018-04-18T10:50:27.717Z,6128.00
2018-04-18T10:51:27.743Z,5988.00
2018-04-18T10:52:27.747Z,5832.00
2018-04-18T10:53:27.761Z,6452.00
2018-04-18T10:54:27.890Z,7752.00
2018-04-18T10:55:27.791Z,6956.00
2018-04-18T10:56:27.807Z,7996.00
2018-04-18T10:57:27.820Z,6364.00
2018-04-18T10:58:27.828Z,7940.00
2018-04-18T10:59:27.971Z,6220.00
2018-04-18T11:00:27.856Z,6436.00
2018-04-18T11:01:27.871Z,6252.00
2018-04-18T11:02:27.923Z,9560.00
2018-04-18T11:03:27.905Z,7632.00
2018-04-18T11:04:28.010Z,9812.00
2018-04-18T11:05:27.922Z,9552.00
2018-04-18T11:06:27.934Z,9372.00
2018-04-18T11:07:27.948Z,12060.00
2018-04-18T11:08:27.999Z,9992.00
2018-04-18T11:09:28.081Z,12920.00
2018-04-18T11:10:28.035Z,10920.00
2018-04-18T11:11:28.015Z,13756.00
2018-04-18T11:12:28.028Z,11200.00
2018-04-18T11:13:28.033Z,12052.00
2018-04-18T11:14:28.231Z,19776.00
2018-04-18T11:15:28.068Z,17920.00
2018-04-18T11:16:28.080Z,14680.00
2018-04-18T11:17:28.104Z,21632.00
2018-04-18T11:18:28.123Z,17088.00
2018-04-18T11:19:28.123Z,23072.00
2018-04-18T11:20:28.238Z,22752.00
2018-04-18T11:21:28.175Z,13668.00
2018-04-18T11:22:28.161Z,20608.00
2018-04-18T11:23:28.178Z,23968.00
2018-04-18T11:24:28.204Z,17856.00
2018-04-18T11:25:28.307Z,23808.00
2018-04-18T11:26:28.250Z,22272.00
2018-04-18T11:27:28.239Z,12484.00
2018-04-18T11:28:28.254Z,14620.00
2018-04-18T11:29:28.296Z,13872.00
2018-04-18T11:30:28.382Z,12808.00
2018-04-18T11:31:28.351Z,16248.00
2018-04-18T11:32:28.325Z,20864.00
2018-04-18T11:33:28.332Z,15552.00
2018-04-18T11:34:28.343Z,22976.00
2018-04-18T11:35:28.463Z,17952.00
2018-04-18T11:36:28.383Z,14060.00
2018-04-18T11:37:28.415Z,16704.00
2018-04-18T11:38:28.433Z,23104.00
2018-04-18T11:39:28.453Z,20608.00
2018-04-18T11:40:28.548Z,24000.00
2018-04-18T11:41:28.475Z,23232.00
2018-04-18T11:42:28.495Z,22688.00
2018-04-18T11:43:28.507Z,23232.00
2018-04-18T11:44:28.510Z,22560.00
2018-04-18T11:45:29.649Z,21184.00
2018-04-18T11:46:28.530Z,22112.00
2018-04-18T11:47:28.552Z,22784.00
2018-04-18T11:48:28.590Z,13880.00
2018-04-18T11:49:28.600Z,24640.00
2018-04-18T11:50:28.707Z,22688.00
2018-04-18T11:51:28.635Z,22080.00
2018-04-18T11:52:28.657Z,22304.00
2018-04-18T11:53:28.639Z,22368.00
2018-04-18T11:54:28.653Z,22400.00
2018-04-18T11:55:28.802Z,22624.00
2018-04-18T11:56:28.714Z,22592.00
2018-04-18T11:57:28.707Z,15868.00
2018-04-18T11:58:28.723Z,25152.00
2018-04-18T11:59:28.741Z,22304.00
2018-04-18T12:00:28.864Z,22208.00
2018-04-18T12:01:28.777Z,22688.00
2018-04-18T12:02:28.811Z,23456.00
2018-04-18T12:03:28.833Z,21856.00
2018-04-18T12:04:28.843Z,24032.00
2018-04-18T12:05:28.931Z,23104.00
2018-04-18T12:06:28.873Z,22848.00
2018-04-18T12:07:28.896Z,22976.00
2018-04-18T12:08:28.908Z,23200.00
2018-04-18T12:09:28.924Z,23904.00
2018-04-18T12:10:29.031Z,23808.00
2018-04-18T12:11:28.981Z,23200.00
2018-04-18T12:12:28.980Z,23136.00
2018-04-18T12:13:28.972Z,22784.00
2018-04-18T12:14:28.995Z,23104.00
2018-04-18T12:15:29.130Z,22976.00
2018-04-18T12:16:29.022Z,23008.00
2018-04-18T12:17:29.064Z,22976.00
2018-04-18T12:18:29.062Z,23200.00
2018-04-18T12:19:29.074Z,22880.00
2018-04-18T12:20:29.219Z,23136.00
2018-04-18T12:21:29.109Z,23520.00
2018-04-18T12:22:29.152Z,23488.00
2018-04-18T12:23:29.170Z,23392.00
2018-04-18T12:24:29.197Z,23072.00
2018-04-18T12:25:29.282Z,23648.00
2018-04-18T12:26:29.224Z,23584.00
2018-04-18T12:27:29.224Z,23552.00
2018-04-18T12:28:29.238Z,23424.00
2018-04-18T12:29:29.276Z,23744.00
2018-04-18T12:30:29.370Z,23552.00
2018-04-18T12:31:29.288Z,23488.00
2018-04-18T12:32:29.315Z,23680.00
2018-04-18T12:33:29.320Z,23840.00
2018-04-18T12:34:29.367Z,24064.00
2018-04-18T12:35:29.462Z,24192.00
2018-04-18T12:36:29.391Z,24256.00
2018-04-18T12:37:29.399Z,25056.00
2018-04-18T12:38:29.426Z,24768.00
2018-04-18T12:39:29.458Z,25472.00
2018-04-18T12:40:29.556Z,26016.00
2018-04-18T12:41:29.482Z,25728.00
2018-04-18T12:42:29.492Z,26816.00
2018-04-18T12:43:29.528Z,29568.00
2018-04-18T12:44:29.561Z,47456.00
2018-04-18T12:45:29.674Z,67072.00
2018-04-18T12:46:29.569Z,78720.00
2018-04-18T12:47:29.614Z,85600.00
2018-04-18T12:48:29.608Z,90656.00
2018-04-18T12:49:29.626Z,89856.00
2018-04-18T12:50:29.746Z,86048.00
2018-04-18T12:51:29.685Z,84832.00
2018-04-18T12:52:29.709Z,82848.00
2018-04-18T12:53:29.704Z,82368.00